createdAt,value
2022-11-13T00:00:01.075Z,19.83
2022-11-13T00:05:02.970Z,19.86
2022-11-13T00:10:05.377Z,19.88
2022-11-13T00:15:07.601Z,19.79
2022-11-13T00:20:09.752Z,19.84
2022-11-13T00:25:12.089Z,19.79
2022-11-13T00:30:19.093Z,19.84
2022-11-13T00:35:21.404Z,19.78
2022-11-13T00:40:23.278Z,19.77
2022-11-13T00:45:25.200Z,19.79
2022-11-13T00:50:28.083Z,19.78
2022-11-13T00:55:29.832Z,19.82
2022-11-13T01:00:32.789Z,19.68
2022-11-13T01:05:39.214Z,19.69
2022-11-13T01:10:53.202Z,19.80
2022-11-13T01:15:55.626Z,19.86
2022-11-13T01:21:09.151Z,19.85
2022-11-13T01:26:12.503Z,19.83
2022-11-13T01:31:21.337Z,19.74
2022-11-13T01:36:26.478Z,19.77
2022-11-13T01:41:34.057Z,19.79
2022-11-13T01:46:42.714Z,19.75
2022-11-13T01:51:50.735Z,19.70
2022-11-13T01:56:53.815Z,19.67
2022-11-13T02:01:56.515Z,19.73
2022-11-13T02:07:02.892Z,19.69
2022-11-13T02:12:07.397Z,19.67
2022-11-13T02:17:11.715Z,19.72
2022-11-13T02:22:27.587Z,19.65
2022-11-13T02:27:48.370Z,19.68
2022-11-13T02:32:53.253Z,19.66
2022-11-13T02:37:56.527Z,19.65
2022-11-13T02:42:58.356Z,19.65
2022-11-13T02:48:01.094Z,19.65
2022-11-13T02:53:03.257Z,19.67
2022-11-13T02:58:05.643Z,19.69
2022-11-13T03:03:07.487Z,19.67
2022-11-13T03:08:09.292Z,19.67
2022-11-13T03:13:11.113Z,19.68
2022-11-13T03:18:13.013Z,19.72
2022-11-13T03:23:14.847Z,19.69
2022-11-13T03:28:16.863Z,19.63
2022-11-13T03:33:18.627Z,19.65
2022-11-13T03:38:20.763Z,19.66
2022-11-13T03:43:23.483Z,19.66
2022-11-13T03:48:25.575Z,19.65
2022-11-13T03:53:27.856Z,19.67
2022-11-13T03:58:29.994Z,19.67
2022-11-13T04:03:31.843Z,19.69
2022-11-13T04:08:33.575Z,19.70
2022-11-13T04:13:35.327Z,19.64
2022-11-13T04:18:37.031Z,19.69
2022-11-13T04:23:38.992Z,19.72
2022-11-13T04:28:40.772Z,19.67
2022-11-13T04:33:42.638Z,19.64
2022-11-13T04:38:44.531Z,19.67
2022-11-13T04:43:46.582Z,19.61
2022-11-13T04:48:48.472Z,19.66
2022-11-13T04:53:50.534Z,19.63
2022-11-13T04:58:52.720Z,19.68
2022-11-13T05:03:54.456Z,19.66
2022-11-13T05:08:56.323Z,19.64
2022-11-13T05:14:03.240Z,19.64
2022-11-13T05:19:09.212Z,19.65
2022-11-13T05:24:12.161Z,19.64
2022-11-13T05:29:14.107Z,19.66
2022-11-13T05:34:15.854Z,19.66
2022-11-13T05:39:17.744Z,19.66
2022-11-13T05:44:19.784Z,19.61
2022-11-13T05:49:21.541Z,19.64
2022-11-13T05:54:23.992Z,19.60
2022-11-13T05:59:25.901Z,19.62
2022-11-13T06:04:27.809Z,19.62
2022-11-13T06:09:29.686Z,19.62
2022-11-13T06:14:31.523Z,19.60
2022-11-13T06:19:33.268Z,19.62
2022-11-13T06:24:34.888Z,19.67
2022-11-13T06:29:36.737Z,19.63
2022-11-13T06:34:38.605Z,19.61
2022-11-13T06:39:40.539Z,19.61
2022-11-13T06:44:42.925Z,19.61
2022-11-13T06:49:44.974Z,19.59
2022-11-13T06:54:46.897Z,19.61
2022-11-13T06:59:48.734Z,19.60
2022-11-13T07:04:50.591Z,19.62
2022-11-13T07:09:52.335Z,19.61
2022-11-13T07:14:54.234Z,19.59
2022-11-13T07:19:56.266Z,19.62
2022-11-13T07:24:58.631Z,19.58
2022-11-13T07:30:03.619Z,19.60
2022-11-13T07:35:06.468Z,19.57
2022-11-13T07:40:08.902Z,19.60
2022-11-13T07:45:11.004Z,19.57
2022-11-13T07:50:13.153Z,19.57
2022-11-13T07:55:15.191Z,19.63
2022-11-13T08:00:17.620Z,19.59
2022-11-13T08:05:19.551Z,19.55
2022-11-13T08:10:21.848Z,19.56
2022-11-13T08:15:23.752Z,19.50
2022-11-13T08:20:27.343Z,19.18
2022-11-13T08:25:30.804Z,19.36
2022-11-13T08:30:32.818Z,19.20
2022-11-13T08:35:34.499Z,19.16
2022-11-13T08:40:36.447Z,19.11
2022-11-13T08:45:38.440Z,19.09
2022-11-13T08:50:41.014Z,19.14
2022-11-13T08:55:42.620Z,19.25
2022-11-13T09:00:44.618Z,19.35
2022-11-13T09:05:46.331Z,19.42
2022-11-13T09:10:48.210Z,19.41
2022-11-13T09:15:49.851Z,19.44
2022-11-13T09:20:51.676Z,19.49
2022-11-13T09:25:53.745Z,19.49
2022-11-13T09:30:55.978Z,19.41
2022-11-13T09:35:58.183Z,19.47
2022-11-13T09:41:10.589Z,19.52
2022-11-13T09:46:44.443Z,19.53
2022-11-13T09:51:55.759Z,19.54
2022-11-13T09:57:06.351Z,19.47
2022-11-13T10:02:08.135Z,19.51
2022-11-13T10:07:23.052Z,19.51
2022-11-13T10:12:28.155Z,19.50
2022-11-13T10:17:39.459Z,19.55
2022-11-13T10:22:49.298Z,19.55
2022-11-13T10:27:56.749Z,19.58
2022-11-13T10:33:06.138Z,19.55
2022-11-13T10:38:21.469Z,19.56
2022-11-13T10:43:26.228Z,19.56
2022-11-13T10:48:29.960Z,19.55
2022-11-13T10:53:41.294Z,19.54
2022-11-13T10:58:42.954Z,19.54
2022-11-13T11:03:51.243Z,19.55
2022-11-13T11:08:53.020Z,19.57
2022-11-13T11:14:20.593Z,19.53
2022-11-13T11:19:28.893Z,19.54
2022-11-13T11:24:36.297Z,19.53
2022-11-13T11:29:44.054Z,19.47
2022-11-13T11:35:08.353Z,19.55
2022-11-13T11:40:17.693Z,19.55
2022-11-13T11:45:41.039Z,19.52
2022-11-13T11:50:55.540Z,19.51
2022-11-13T11:55:57.177Z,19.53
2022-11-13T12:01:07.003Z,19.64
2022-11-13T12:06:17.903Z,19.81
2022-11-13T12:11:30.093Z,19.70
2022-11-13T12:16:50.446Z,19.77
2022-11-13T12:22:13.122Z,19.76
2022-11-13T12:27:41.098Z,19.78
2022-11-13T12:33:04.268Z,19.66
2022-11-13T12:38:21.709Z,19.87
2022-11-13T12:43:41.892Z,19.77
2022-11-13T12:48:48.300Z,19.58
2022-11-13T12:53:53.117Z,19.70
2022-11-13T12:59:28.538Z,19.68
2022-11-13T13:04:43.504Z,19.76
2022-11-13T13:10:00.120Z,19.75
2022-11-13T13:15:32.444Z,19.75
2022-11-13T13:20:38.465Z,19.71
2022-11-13T13:25:41.442Z,19.80
2022-11-13T13:30:57.155Z,19.68
2022-11-13T13:36:15.747Z,19.62
2022-11-13T13:41:41.649Z,19.70
2022-11-13T13:46:43.779Z,19.71
2022-11-13T13:51:49.006Z,19.62
2022-11-13T13:56:51.393Z,19.68
2022-11-13T14:02:04.506Z,19.65
2022-11-13T14:07:18.471Z,19.68
2022-11-13T14:12:23.513Z,19.66
2022-11-13T14:17:25.852Z,19.67
2022-11-13T14:22:28.557Z,19.67
2022-11-13T14:27:31.293Z,19.66
2022-11-13T14:32:42.970Z,19.69
2022-11-13T14:37:48.759Z,19.67
2022-11-13T14:43:02.760Z,19.66
2022-11-13T14:48:19.073Z,19.64
2022-11-13T14:53:32.888Z,19.67
2022-11-13T14:58:47.532Z,19.64
2022-11-13T15:03:51.122Z,19.67
2022-11-13T15:08:58.365Z,19.69
2022-11-13T15:14:04.303Z,19.55
2022-11-13T15:19:35.460Z,19.71
2022-11-13T15:24:37.312Z,19.70
2022-11-13T15:29:39.067Z,19.65
2022-11-13T15:34:40.944Z,19.62
2022-11-13T15:39:44.009Z,19.50
2022-11-13T15:44:46.246Z,19.63
2022-11-13T15:50:09.864Z,19.49
2022-11-13T15:55:36.215Z,19.56
2022-11-13T16:00:42.756Z,19.58
2022-11-13T16:05:44.755Z,19.61
2022-11-13T16:10:46.758Z,19.69
2022-11-13T16:15:49.771Z,19.68
2022-11-13T16:20:51.400Z,19.67
2022-11-13T16:25:54.576Z,19.58
2022-11-13T16:30:58.060Z,19.65
2022-11-13T16:35:59.682Z,19.73
2022-11-13T16:41:02.563Z,19.68
2022-11-13T16:46:14.594Z,19.60
2022-11-13T16:51:17.034Z,19.71
2022-11-13T16:56:31.570Z,19.69
2022-11-13T17:01:33.783Z,19.62
2022-11-13T17:06:37.021Z,19.66
2022-11-13T17:11:40.300Z,19.53
2022-11-13T17:16:42.159Z,19.64
2022-11-13T17:21:44.742Z,19.72
2022-11-13T17:26:46.737Z,19.68
2022-11-13T17:31:49.093Z,19.45
2022-11-13T17:36:52.421Z,19.44
2022-11-13T17:41:54.718Z,19.55
2022-11-13T17:46:56.868Z,19.66
2022-11-13T17:51:58.666Z,19.82
2022-11-13T17:57:02.569Z,19.73
2022-11-13T18:02:04.609Z,19.81
2022-11-13T18:07:06.958Z,19.79
2022-11-13T18:12:08.796Z,19.59
2022-11-13T18:17:10.440Z,19.54
2022-11-13T18:22:12.836Z,19.49
2022-11-13T18:27:15.339Z,19.53
2022-11-13T18:32:18.309Z,19.50
2022-11-13T18:37:20.409Z,19.44
2022-11-13T18:42:22.589Z,19.35
2022-11-13T18:47:24.620Z,19.42
2022-11-13T18:52:26.415Z,19.43
2022-11-13T18:57:28.307Z,19.43
2022-11-13T19:02:30.350Z,19.58
2022-11-13T19:07:32.295Z,19.59
2022-11-13T19:12:34.515Z,19.69
2022-11-13T19:17:36.524Z,19.72
2022-11-13T19:22:38.507Z,19.79
2022-11-13T19:27:40.279Z,19.81
2022-11-13T19:32:41.975Z,19.75
2022-11-13T19:37:43.935Z,19.74
2022-11-13T19:42:45.814Z,19.77
2022-11-13T19:47:47.688Z,19.82
2022-11-13T19:52:49.463Z,19.75
2022-11-13T19:57:51.292Z,19.67
2022-11-13T20:02:56.042Z,19.69
2022-11-13T20:07:58.563Z,19.72
2022-11-13T20:13:00.618Z,19.71
2022-11-13T20:18:02.514Z,19.67
2022-11-13T20:23:04.184Z,19.69
2022-11-13T20:28:06.084Z,19.72
2022-11-13T20:33:07.901Z,19.68
2022-11-13T20:38:10.799Z,19.70
2022-11-13T20:43:12.919Z,19.65
2022-11-13T20:48:14.932Z,19.70
2022-11-13T20:53:16.936Z,19.68
2022-11-13T20:58:19.864Z,19.74
2022-11-13T21:03:22.411Z,19.65
2022-11-13T21:08:24.845Z,19.64
2022-11-13T21:13:27.329Z,19.68
2022-11-13T21:18:30.756Z,19.60
2022-11-13T21:23:33.345Z,19.63
2022-11-13T21:28:35.893Z,19.68
2022-11-13T21:33:39.212Z,19.67
2022-11-13T21:38:42.756Z,19.65
2022-11-13T21:43:44.995Z,19.68
2022-11-13T21:48:48.092Z,19.70
2022-11-13T21:53:50.406Z,19.66
2022-11-13T21:58:53.111Z,19.63
2022-11-13T22:03:55.152Z,19.61
2022-11-13T22:08:59.139Z,19.62
2022-11-13T22:14:01.758Z,19.69
2022-11-13T22:19:06.095Z,19.57
2022-11-13T22:24:09.119Z,19.69
2022-11-13T22:29:11.419Z,19.68
2022-11-13T22:34:13.119Z,19.63
2022-11-13T22:39:14.762Z,19.65
2022-11-13T22:44:16.438Z,19.64
2022-11-13T22:49:19.256Z,19.65
2022-11-13T22:54:21.091Z,19.66
2022-11-13T22:59:22.888Z,19.65
2022-11-13T23:04:24.638Z,19.59
2022-11-13T23:09:28.859Z,19.62
2022-11-13T23:14:30.633Z,19.63
2022-11-13T23:19:32.577Z,19.66
2022-11-13T23:24:34.381Z,19.62
2022-11-13T23:29:36.243Z,19.61
2022-11-13T23:34:58.642Z,19.61
2022-11-13T23:39:59.768Z,19.63
2022-11-13T23:45:01.741Z,19.59
2022-11-13T23:50:03.821Z,19.66
2022-11-13T23:55:05.970Z,19.62
